Else Marie Theresa — OWJL2 — position and weather

sailwx.info

Track history (hours):
 
Tides and Currents Weather Stations Pressure Air Temp Water Temp Dewpoint Dewpoint Depression Visibility Wind Speed Wind Dir Waves Ship Positions

Else Marie Theresa

Last reported at 2018-Jun-21 17:30 UTC. Time now 2018-Jun-21 17:40 UTC.
Position N 51°39' E 002°13'.

Length 96 m; draft 6.7 m.

Type: Tanker. MMSI: 220002000.

Date/timePositionNaut miles runAvg speedWind from/ knotsBaromVisibWave heightAir tempDewpointWater temp
2018-Jun-21 17:30N 51°39' E 002°13'611.6
2018-Jun-21 17:00N 51°43' E 002°19'44 9.6
2018-Jun-21 12:26N 52°02' E 003°23'4 8.4
2018-Jun-21 11:59N 52°03' E 003°29'4 8.3
2018-Jun-21 11:30N 52°03' E 003°36'4 8.1
2018-Jun-21 10:59N 52°03' E 003°42'4 8.0
2018-Jun-21 10:30N 52°03' E 003°48'3 5.2
2018-Jun-21 10:01N 52°03' E 003°53'2 4.7
2018-Jun-21 09:30N 52°02' E 003°56'4 7.3
2018-Jun-21 09:00N 52°00' E 004°02'5 9.2
2018-Jun-21 08:30N 51°58' E 004°08'4 8.0
2018-Jun-21 08:00N 51°56' E 004°13'3 7.0
2018-Jun-21 07:30N 51°54' E 004°18'2 4.5
2018-Jun-21 07:00N 51°54' E 004°22'0 0.0
2018-Jun-21 06:30N 51°54' E 004°22'0 0.0
2018-Jun-21 05:57N 51°54' E 004°22'0 0.0
2018-Jun-21 05:27N 51°54' E 004°22'0 0.0
2018-Jun-21 05:00N 51°54' E 004°22'0 0.0
2018-Jun-21 04:27N 51°54' E 004°22'0 0.0
2018-Jun-21 04:00N 51°54' E 004°22'0 0.0
2018-Jun-21 03:30N 51°54' E 004°22'0 0.0
2018-Jun-21 03:00N 51°54' E 004°22'0 0.0
2018-Jun-21 02:30N 51°54' E 004°22'0 0.0
2018-Jun-21 02:00N 51°54' E 004°22'0 0.0
2018-Jun-21 01:30N 51°54' E 004°22'0 0.0
2018-Jun-21 01:00N 51°54' E 004°22'0 0.0
2018-Jun-21 00:27N 51°54' E 004°22'0 0.0
2018-Jun-20 23:57N 51°54' E 004°22'0 0.0
2018-Jun-20 23:30N 51°54' E 004°22'0 0.0
2018-Jun-20 23:00N 51°54' E 004°22'0 0.0
2018-Jun-20 22:30N 51°54' E 004°22'0 0.0
2018-Jun-20 21:57N 51°54' E 004°22'0 0.0
2018-Jun-20 21:30N 51°54' E 004°22'0 0.0
2018-Jun-20 21:00N 51°54' E 004°22'0 0.0
2018-Jun-20 20:30N 51°54' E 004°22'0 0.0
2018-Jun-20 19:57N 51°54' E 004°22'0 0.0
2018-Jun-20 19:30N 51°54' E 004°22'0 0.0
2018-Jun-20 19:00N 51°54' E 004°22'0 0.0
2018-Jun-20 18:30N 51°54' E 004°22'0 0.0
2018-Jun-20 18:00N 51°54' E 004°22'0 0.0
2018-Jun-20 17:30N 51°54' E 004°22'0 0.0
2018-Jun-20 17:00N 51°54' E 004°22'0 0.0
2018-Jun-20 16:30N 51°54' E 004°22'0 0.0
2018-Jun-20 16:00N 51°54' E 004°22'0 0.0
2018-Jun-20 15:30N 51°54' E 004°22'0 0.0
2018-Jun-20 14:54N 51°54' E 004°22'0 0.0
2018-Jun-20 14:30N 51°54' E 004°22'0 0.0
2018-Jun-20 13:57N 51°54' E 004°22'0 0.0
2018-Jun-20 13:21N 51°54' E 004°22'0 0.0
2018-Jun-20 12:57N 51°54' E 004°22'0 0.0
2018-Jun-20 12:30N 51°54' E 004°22'0 0.0
2018-Jun-20 11:57N 51°54' E 004°22'0 0.0
2018-Jun-20 11:21N 51°54' E 004°22'0 0.0
2018-Jun-20 10:57N 51°54' E 004°22'0 0.0
2018-Jun-20 10:27N 51°54' E 004°22'0 0.0
2018-Jun-20 10:00N 51°54' E 004°22'0 0.0
2018-Jun-20 09:24N 51°54' E 004°22'0 0.0
2018-Jun-20 09:00N 51°54' E 004°22'0 0.0
2018-Jun-20 08:25N 51°54' E 004°22'0 0.3
2018-Jun-20 08:00N 51°54' E 004°22'4 8.2
2018-Jun-20 07:31N 51°55' E 004°15'713.4
2018-Jun-20 07:00N 51°59' E 004°06'612.9
2018-Jun-20 06:31N 52°00' E 003°56'5 9.8
2018-Jun-20 06:01N 51°58' E 003°50'2 3.4
2018-Jun-20 05:20N 51°55' E 003°49'0 0.0
2018-Jun-20 04:59N 51°55' E 003°49'0 0.0
2018-Jun-20 04:26N 51°55' E 003°49'0 0.1
2018-Jun-20 03:59N 51°55' E 003°49'0 0.0
2018-Jun-20 03:23N 51°55' E 003°49'0 0.0
2018-Jun-20 02:59N 51°55' E 003°49'0 0.0
2018-Jun-20 02:29N 51°55' E 003°49'0 0.2
2018-Jun-20 01:59N 51°55' E 003°49'0 0.0
2018-Jun-20 01:29N 51°55' E 003°49'0 0.0
2018-Jun-20 00:50N 51°55' E 003°49'0 0.1
2018-Jun-20 00:29N 51°55' E 003°49'0 0.1
2018-Jun-19 23:56N 51°55' E 003°49'0 0.0
2018-Jun-19 23:05N 51°55' E 003°49'0 0.0
2018-Jun-19 22:56N 51°55' E 003°49'0 0.0
2018-Jun-19 22:29N 51°55' E 003°49'0 0.0
2018-Jun-19 21:59N 51°55' E 003°49'0 0.0
2018-Jun-19 21:26N 51°55' E 003°49'0 0.0
2018-Jun-19 20:56N 51°55' E 003°49'0 0.0
2018-Jun-19 20:23N 51°55' E 003°49'0 0.0
2018-Jun-19 19:56N 51°55' E 003°49'0 0.0
2018-Jun-19 19:20N 51°55' E 003°49'0 0.0
2018-Jun-19 18:50N 51°55' E 003°49'0 0.1
2018-Jun-19 18:29N 51°55' E 003°49'0 0.0
2018-Jun-19 17:59N 51°55' E 003°49'0 0.0
2018-Jun-19 17:02N 51°55' E 003°49'0 0.0
2018-Jun-19 16:50N 51°55' E 003°49'0 0.0
2018-Jun-19 16:29N 51°55' E 003°49'0 0.2
2018-Jun-19 15:59N 51°55' E 003°49'0 0.0
2018-Jun-19 15:29N 51°55' E 003°49'0 0.0
2018-Jun-19 14:59N 51°55' E 003°49'0 0.1
2018-Jun-19 14:26N 51°55' E 003°49'0 0.0
2018-Jun-19 13:59N 51°55' E 003°49'0 0.0
2018-Jun-19 13:29N 51°55' E 003°49'0 0.1
2018-Jun-19 12:59N 51°55' E 003°49'0 0.1
2018-Jun-19 12:29N 51°55' E 003°49'0 0.0
2018-Jun-19 11:56N 51°55' E 003°49'0 0.0
2018-Jun-19 11:29N 51°55' E 003°49'0 0.1
2018-Jun-19 10:59N 51°55' E 003°49'0 0.1
2018-Jun-19 10:29N 51°55' E 003°49'0 0.0
2018-Jun-19 09:47N 51°55' E 003°49'0 0.0
2018-Jun-19 09:26N 51°55' E 003°49'0 0.0
2018-Jun-19 07:56N 51°55' E 003°49'0 0.0
2018-Jun-19 06:47N 51°55' E 003°49'0 0.0
2018-Jun-19 06:23N 51°55' E 003°49'0 0.0
2018-Jun-19 05:59N 51°55' E 003°49'0 0.0
2018-Jun-19 05:23N 51°55' E 003°49'0 0.0
2018-Jun-19 04:50N 51°55' E 003°49'0 0.0
2018-Jun-19 04:23N 51°55' E 003°49'0 0.0
2018-Jun-19 03:35N 51°55' E 003°49'0 0.1
2018-Jun-19 03:26N 51°55' E 003°49'0 0.0
2018-Jun-19 02:59N 51°55' E 003°49'0 0.0
2018-Jun-19 02:23N 51°55' E 003°49'0 0.2
2018-Jun-19 01:59N 51°55' E 003°49'0 0.1
2018-Jun-19 01:29N 51°55' E 003°49'0 0.1
2018-Jun-19 00:59N 51°55' E 003°49'0 0.1
2018-Jun-19 00:26N 51°55' E 003°49'0 0.0
2018-Jun-18 23:59N 51°55' E 003°49'0 0.1
2018-Jun-18 23:29N 51°55' E 003°49'0 0.0
2018-Jun-18 22:44N 51°55' E 003°49'0 0.1
2018-Jun-18 22:26N 51°55' E 003°49'0 0.0
2018-Jun-18 21:59N 51°55' E 003°49'0 0.0
2018-Jun-18 21:14N 51°55' E 003°49'0 0.0
2018-Jun-18 20:50N 51°55' E 003°49'0 0.0
2018-Jun-18 20:26N 51°55' E 003°49'0 0.0
2018-Jun-18 19:41N 51°55' E 003°49'0 0.0
2018-Jun-18 19:29N 51°55' E 003°49'0 0.0
2018-Jun-18 18:35N 51°55' E 003°49'0 0.0
2018-Jun-18 18:23N 51°55' E 003°49'0 0.0
2018-Jun-18 17:56N 51°55' E 003°49'3 8.1
2018-Jun-18 17:30N 51°55' E 003°44'510.1
2018-Jun-18 17:01N 51°57' E 003°36'713.9
2018-Jun-18 16:30N 51°55' E 003°25'713.6
2018-Jun-18 16:00N 51°53' E 003°15'913.1
2018-Jun-18 15:18N 51°50' E 003°01'1112.5
2018-Jun-18 14:26N 51°48' E 002°44'812.1
2018-Jun-18 13:49N 51°50' E 002°32'411.6
2018-Jun-18 13:30N 51°51' E 002°27'4 8.6
2018-Jun-18 13:00N 51°55' E 002°30'9 3.1
2018-Jun-18 09:58N 51°46' E 002°33'2 3.2
2018-Jun-18 09:21N 51°44' E 002°32'1 4.0
2018-Jun-18 09:01N 51°43' E 002°31'3 6.1
2018-Jun-18 08:30N 51°40' E 002°28'4 7.0
2018-Jun-18 07:59N 51°37' E 002°26'4 8.5
2018-Jun-18 07:29N 51°34' E 002°22'4 9.2
2018-Jun-18 07:00N 51°30' E 002°17'5 9.5
2018-Jun-18 06:29N 51°27' E 002°12'510.9
2018-Jun-18 06:00N 51°24' E 002°05'612.6
2018-Jun-18 05:30N 51°19' E 001°58'713.9
2018-Jun-18 05:00N 51°14' E 001°50'714.8
2018-Jun-18 04:30N 51°08' E 001°43'815.2
2018-Jun-18 04:00N 51°02' E 001°37'815.6
2018-Jun-18 03:30N 50°55' E 001°31'816.0
2018-Jun-18 03:00N 50°47' E 001°28'714.6
2018-Jun-18 02:30N 50°41' E 001°21'6014.0
2018-Jun-17 22:13N 49°56' E 000°19'313.8
2018-Jun-17 22:00N 49°54' E 000°16'713.3
2018-Jun-17 21:30N 49°49' E 000°10'612.5
2018-Jun-17 21:00N 49°44' E 000°04'611.7
2018-Jun-17 20:30N 49°39' W 000°02'611.3
2018-Jun-17 20:00N 49°34' W 000°01'510.7
2018-Jun-17 19:30N 49°29' E 000°04'4 8.5
2018-Jun-17 19:00N 49°29' E 000°10'0 0.0
2018-Jun-17 18:30N 49°29' E 000°10'1 2.5
2018-Jun-17 18:00N 49°30' E 000°11'2 4.4
2018-Jun-17 17:30N 49°29' E 000°15'0 0.0
2018-Jun-17 16:59N 49°29' E 000°15'0 0.0
2018-Jun-17 16:29N 49°29' E 000°15'0 0.0
2018-Jun-17 15:59N 49°29' E 000°15'0 0.0
2018-Jun-17 15:29N 49°29' E 000°15'0 0.0
2018-Jun-17 14:59N 49°29' E 000°15'0 0.0
2018-Jun-17 14:29N 49°29' E 000°15'0 0.0
2018-Jun-17 13:59N 49°29' E 000°15'0 0.0
2018-Jun-17 13:29N 49°29' E 000°15'0 0.0
2018-Jun-17 12:59N 49°29' E 000°15'0 0.0
2018-Jun-17 12:29N 49°29' E 000°15'0 0.0
2018-Jun-17 11:59N 49°29' E 000°15'0 0.0
2018-Jun-17 11:29N 49°29' E 000°15'0 0.0
2018-Jun-17 10:59N 49°29' E 000°15'0 0.0
2018-Jun-17 10:29N 49°29' E 000°15'0 0.0
2018-Jun-17 09:59N 49°29' E 000°15'0 0.0
2018-Jun-17 09:29N 49°29' E 000°15'0 0.0
2018-Jun-17 08:59N 49°29' E 000°15'0 0.0
2018-Jun-17 08:29N 49°29' E 000°15'0 0.0
2018-Jun-17 07:59N 49°29' E 000°15'0 0.0
2018-Jun-17 07:29N 49°29' E 000°15'0 0.0
2018-Jun-17 06:59N 49°29' E 000°15'0 0.0
2018-Jun-17 06:29N 49°29' E 000°15'0 0.2
2018-Jun-17 06:00N 49°30' E 000°15'2 3.4
2018-Jun-17 05:30N 49°30' E 000°12'2 3.5
2018-Jun-17 05:00N 49°29' E 000°10'0 0.5
2018-Jun-17 04:30N 49°28' E 000°10'3 6.7
2018-Jun-17 04:00N 49°29' E 000°05'611.5
2018-Jun-17 03:30N 49°30' W 000°04'5 9.5
2018-Jun-17 03:00N 49°31' W 000°11'0 0.6
2018-Jun-17 02:30N 49°31' W 000°11'0 0.5
2018-Jun-17 02:00N 49°31' W 000°11'0 0.4
2018-Jun-17 01:30N 49°31' W 000°11'0 0.1
2018-Jun-17 01:00N 49°31' W 000°11'1 1.9
2018-Jun-17 00:30N 49°30' W 000°12'1 1.6
2018-Jun-17 00:00N 49°31' W 000°12'1 2.5
2018-Jun-16 23:30N 49°32' W 000°13'1 2.3
2018-Jun-16 23:00N 49°31' W 000°13'1 2.6
2018-Jun-16 22:30N 49°31' W 000°11'2 3.0
2018-Jun-16 22:00N 49°32' W 000°09'3 5.5
2018-Jun-16 21:30N 49°34' W 000°06'4 7.4
2018-Jun-16 21:00N 49°37' W 000°03'4 8.5
2018-Jun-16 20:30N 49°41' W 000°01'510.3
2018-Jun-16 20:00N 49°45' E 000°04'611.6
2018-Jun-16 19:30N 49°50' E 000°09'612.6
2018-Jun-16 19:00N 49°55' E 000°14'4111.7
2018-Jun-16 15:31N 50°33' E 000°36'011.0
2018-Jun-16 15:30N 50°34' E 000°36'611.9
2018-Jun-16 15:00N 50°37' E 000°44'611.4
2018-Jun-16 14:30N 50°40' E 000°51'510.7
2018-Jun-16 14:00N 50°44' E 000°58'610.0
2018-Jun-16 13:26N 50°47' E 001°06'4 9.7
2018-Jun-16 12:59N 50°50' E 001°11'4 9.3
2018-Jun-16 12:30N 50°53' E 001°16'5 9.4
2018-Jun-16 12:00N 50°56' E 001°20'510.4
2018-Jun-16 11:31N 51°00' E 001°26'612.0
2018-Jun-16 11:00N 51°05' E 001°32'713.5
2018-Jun-16 10:30N 51°09' E 001°40'714.3
2018-Jun-16 10:00N 51°15' E 001°47'714.2
2018-Jun-16 09:30N 51°21' E 001°53'611.7
2018-Jun-16 09:00N 51°25' E 002°00'612.2
2018-Jun-16 08:30N 51°23' E 002°09'612.2
2018-Jun-16 08:00N 51°20' E 002°18'713.1
2018-Jun-16 07:30N 51°22' E 002°29'612.6
2018-Jun-16 07:00N 51°23' E 002°39'510.2
2018-Jun-16 06:30N 51°22' E 002°47'712.3
2018-Jun-16 05:58N 51°23' E 002°57'612.4
2018-Jun-16 05:30N 51°24' E 003°06'612.6
2018-Jun-16 05:00N 51°25' E 003°16'612.5
2018-Jun-16 04:30N 51°25' E 003°26'611.9
2018-Jun-16 04:00N 51°25' E 003°36'510.6
2018-Jun-16 03:30N 51°23' E 003°43'5 9.4
2018-Jun-16 03:00N 51°20' E 003°49'0 0.9
2018-Jun-16 02:30N 51°19' E 003°49'3 5.6
2018-Jun-16 02:01N 51°17' E 003°50'4 7.9
2018-Jun-16 01:30N 51°13' E 003°48'4 7.6
2018-Jun-16 01:00N 51°09' E 003°47'4 7.7
2018-Jun-16 00:30N 51°06' E 003°44'1 1.8
2018-Jun-16 00:00N 51°05' E 003°44'0 0.0
2018-Jun-15 23:29N 51°05' E 003°44'0 0.0
2018-Jun-15 22:56N 51°05' E 003°44'0 0.0
2018-Jun-15 22:29N 51°05' E 003°44'0 0.0
2018-Jun-15 21:59N 51°05' E 003°44'0 0.0
2018-Jun-15 21:29N 51°05' E 003°44'0 0.0
2018-Jun-15 20:59N 51°05' E 003°44'0 0.0
2018-Jun-15 20:20N 51°05' E 003°44'0 0.0
2018-Jun-15 19:59N 51°05' E 003°44'0 0.0
2018-Jun-15 19:29N 51°05' E 003°44'0 0.0
2018-Jun-15 18:59N 51°05' E 003°44'0 0.0
2018-Jun-15 18:29N 51°05' E 003°44'0 0.0
2018-Jun-15 17:59N 51°05' E 003°44'0 0.0
2018-Jun-15 17:30N 51°05' E 003°44'0 0.0
2018-Jun-15 16:59N 51°05' E 003°44'0 0.0
2018-Jun-15 16:30N 51°05' E 003°44'0 0.0
2018-Jun-15 15:56N 51°05' E 003°44'0 0.0
2018-Jun-15 15:23N 51°05' E 003°44'0 0.0
2018-Jun-15 14:53N 51°05' E 003°44'0 0.0
2018-Jun-15 14:23N 51°05' E 003°44'0 0.0
2018-Jun-15 13:50N 51°05' E 003°44'0 0.0
2018-Jun-15 13:29N 51°05' E 003°44'0 0.0
2018-Jun-15 12:59N 51°05' E 003°44'0 0.0
2018-Jun-15 12:29N 51°05' E 003°44'0 0.0
2018-Jun-15 11:54N 51°05' E 003°44'0 0.0
2018-Jun-15 11:30N 51°05' E 003°44'0 0.0
2018-Jun-15 11:00N 51°05' E 003°44'0 0.0
2018-Jun-15 10:30N 51°05' E 003°44'0 0.0
2018-Jun-15 10:00N 51°05' E 003°44'0 0.0
2018-Jun-15 09:30N 51°05' E 003°44'0 0.0
2018-Jun-15 09:00N 51°05' E 003°44'0 0.0
2018-Jun-15 08:30N 51°05' E 003°44'0 0.0
2018-Jun-15 08:00N 51°05' E 003°44'0 0.0
2018-Jun-15 07:24N 51°05' E 003°44'0 0.0
2018-Jun-15 07:00N 51°05' E 003°44'0 0.0
2018-Jun-15 06:24N 51°05' E 003°44'0 0.0
2018-Jun-15 06:00N 51°05' E 003°44'0 0.0
2018-Jun-15 05:30N 51°05' E 003°44'0 0.0
2018-Jun-15 05:00N 51°05' E 003°44'0 0.0
2018-Jun-15 04:30N 51°05' E 003°44'0 0.0
2018-Jun-15 04:00N 51°05' E 003°44'0 0.0
2018-Jun-15 03:24N 51°05' E 003°44'0 0.0
2018-Jun-15 03:00N 51°05' E 003°44'0 0.0
2018-Jun-15 02:30N 51°05' E 003°44'0 0.0
2018-Jun-15 02:00N 51°05' E 003°44'0 0.0
2018-Jun-15 01:30N 51°05' E 003°44'0 0.0
2018-Jun-15 00:58N 51°05' E 003°44'0 0.0
2018-Jun-15 00:19N 51°05' E 003°44'0 0.0
2018-Jun-14 23:55N 51°05' E 003°44'0 0.0
2018-Jun-14 23:30N 51°05' E 003°44'3 5.2
2018-Jun-14 23:00N 51°07' E 003°46'5 9.1
2018-Jun-14 22:31N 51°12' E 003°48'4 8.7
2018-Jun-14 22:01N 51°16' E 003°50'4 7.3
2018-Jun-14 21:30N 51°19' E 003°49'0 0.8
2018-Jun-14 21:00N 51°20' E 003°49'0 0.0
2018-Jun-14 20:30N 51°20' E 003°49'1 1.2
2018-Jun-14 20:00N 51°20' E 003°49'1 2.4
2018-Jun-14 19:30N 51°21' E 003°47'4 8.8
2018-Jun-14 19:00N 51°24' E 003°42'5 9.6
2018-Jun-14 18:30N 51°26' E 003°35'4 8.8
2018-Jun-14 18:00N 51°29' E 003°30'510.2
2018-Jun-14 17:30N 51°33' E 003°25'510.5
2018-Jun-14 17:00N 51°38' E 003°21'610.8
2018-Jun-14 16:29N 51°42' E 003°16'510.0
2018-Jun-14 16:00N 51°46' E 003°11'49 9.6
2018-Jun-14 10:52N 52°29' E 002°31'811.8
2018-Jun-14 10:10N 52°36' E 002°24'211.0
2018-Jun-14 09:59N 52°38' E 002°23'712.1
2018-Jun-14 09:22N 52°44' E 002°15'512.5
2018-Jun-14 08:57N 52°48' E 002°10'612.9
2018-Jun-14 08:30N 52°51' E 002°02'713.4
2018-Jun-14 08:00N 52°56' E 001°54'714.0
2018-Jun-14 07:30N 52°60' E 001°44'713.5
2018-Jun-14 07:00N 53°05' E 001°36'713.5
2018-Jun-14 06:30N 53°09' E 001°27'713.5
2018-Jun-14 06:00N 53°13' E 001°18'713.2
2018-Jun-14 05:30N 53°17' E 001°09'4311.2
2018-Jun-14 01:41N 53°35' E 000°04'2 9.6
2018-Jun-14 01:28N 53°35' E 000°01'510.7
2018-Jun-14 01:00N 53°37' W 000°07'3 0.1
2018-Jun-13 00:15N 53°38' W 000°11'0 0.3
2018-Jun-13 00:00N 53°38' W 000°12'2 3.7
2018-Jun-12 23:30N 53°38' W 000°08'510.3
2018-Jun-12 23:00N 53°35' W 000°01'4 6.3
2018-Jun-12 22:24N 53°33' E 000°04'0 0.1
2018-Jun-12 21:49N 53°33' E 000°04'0 0.0
2018-Jun-12 21:22N 53°33' E 000°04'0 0.0
2018-Jun-12 20:58N 53°33' E 000°04'0 0.0
2018-Jun-12 19:51N 53°33' E 000°04'0 0.0
2018-Jun-12 19:15N 53°33' E 000°04'0 0.1
2018-Jun-12 17:57N 53°33' E 000°04'5210.5
2018-Jun-12 12:59N 53°10' E 001°22'713.5
2018-Jun-12 12:30N 53°06' E 001°31'713.4
2018-Jun-12 12:00N 53°02' E 001°40'713.4
2018-Jun-12 11:30N 52°59' E 001°50'612.9
2018-Jun-12 11:00N 52°56' E 001°59'611.9
2018-Jun-12 10:30N 52°51' E 002°06'611.6
2018-Jun-12 10:00N 52°46' E 002°10'4210.6
2018-Jun-12 06:00N 52°20' E 003°05'1311.3
2018-Jun-12 04:50N 52°13' E 003°23'411.4
2018-Jun-12 04:30N 52°11' E 003°28'611.6
2018-Jun-12 04:00N 52°07' E 003°36'611.5
2018-Jun-12 03:30N 52°05' E 003°44'611.4
2018-Jun-12 03:00N 52°03' E 003°53'510.1
2018-Jun-12 02:30N 52°01' E 004°00'612.0
2018-Jun-12 02:00N 51°58' E 004°09'510.9
2018-Jun-12 01:30N 51°54' E 004°16'2 3.3
2018-Jun-12 00:48N 51°53' E 004°18'0 0.0
2018-Jun-12 00:24N 51°53' E 004°18'0 0.0
2018-Jun-12 00:00N 51°53' E 004°18'0 0.0
2018-Jun-11 23:30N 51°53' E 004°18'0 0.0
2018-Jun-11 23:00N 51°53' E 004°18'0 0.0
2018-Jun-11 22:30N 51°53' E 004°18'0 0.0
2018-Jun-11 22:00N 51°53' E 004°18'0 0.0
2018-Jun-11 21:24N 51°53' E 004°18'0 0.0
2018-Jun-11 21:00N 51°53' E 004°18'0 0.0
2018-Jun-11 20:30N 51°53' E 004°18'0 0.0
2018-Jun-11 20:00N 51°53' E 004°18'0 0.0
2018-Jun-11 19:30N 51°53' E 004°18'0 0.0
2018-Jun-11 19:00N 51°53' E 004°18'0 0.0
2018-Jun-11 18:30N 51°53' E 004°18'0 0.0
2018-Jun-11 18:00N 51°53' E 004°18'0 0.0
2018-Jun-11 17:30N 51°53' E 004°18'  
Track history (hours):
 
Tides and Currents Weather Stations Pressure Air Temp Water Temp Dewpoint Dewpoint Depression Visibility Wind Speed Wind Dir Waves Ship Positions

Else Marie Theresa

Last reported at 2018-Jun-21 17:30 UTC. Time now 2018-Jun-21 17:40 UTC.
Position N 51°39' E 002°13'.

Length 96 m; draft 6.7 m.

Type: Tanker. MMSI: 220002000.

Date/timePositionNaut miles runAvg speedWind from/ knotsBaromVisibWave heightAir tempDewpointWater temp
2018-Jun-21 17:30N 51°39' E 002°13'611.6
2018-Jun-21 17:00N 51°43' E 002°19'44 9.6
2018-Jun-21 12:26N 52°02' E 003°23'4 8.4
2018-Jun-21 11:59N 52°03' E 003°29'4 8.3
2018-Jun-21 11:30N 52°03' E 003°36'4 8.1
2018-Jun-21 10:59N 52°03' E 003°42'4 8.0
2018-Jun-21 10:30N 52°03' E 003°48'3 5.2
2018-Jun-21 10:01N 52°03' E 003°53'2 4.7
2018-Jun-21 09:30N 52°02' E 003°56'4 7.3
2018-Jun-21 09:00N 52°00' E 004°02'5 9.2
2018-Jun-21 08:30N 51°58' E 004°08'4 8.0
2018-Jun-21 08:00N 51°56' E 004°13'3 7.0
2018-Jun-21 07:30N 51°54' E 004°18'2 4.5
2018-Jun-21 07:00N 51°54' E 004°22'0 0.0
2018-Jun-21 06:30N 51°54' E 004°22'0 0.0
2018-Jun-21 05:57N 51°54' E 004°22'0 0.0
2018-Jun-21 05:27N 51°54' E 004°22'0 0.0
2018-Jun-21 05:00N 51°54' E 004°22'0 0.0
2018-Jun-21 04:27N 51°54' E 004°22'0 0.0
2018-Jun-21 04:00N 51°54' E 004°22'0 0.0
2018-Jun-21 03:30N 51°54' E 004°22'0 0.0
2018-Jun-21 03:00N 51°54' E 004°22'0 0.0
2018-Jun-21 02:30N 51°54' E 004°22'0 0.0
2018-Jun-21 02:00N 51°54' E 004°22'0 0.0
2018-Jun-21 01:30N 51°54' E 004°22'0 0.0
2018-Jun-21 01:00N 51°54' E 004°22'0 0.0
2018-Jun-21 00:27N 51°54' E 004°22'0 0.0
2018-Jun-20 23:57N 51°54' E 004°22'0 0.0
2018-Jun-20 23:30N 51°54' E 004°22'0 0.0
2018-Jun-20 23:00N 51°54' E 004°22'0 0.0
2018-Jun-20 22:30N 51°54' E 004°22'0 0.0
2018-Jun-20 21:57N 51°54' E 004°22'0 0.0
2018-Jun-20 21:30N 51°54' E 004°22'0 0.0
2018-Jun-20 21:00N 51°54' E 004°22'0 0.0
2018-Jun-20 20:30N 51°54' E 004°22'0 0.0
2018-Jun-20 19:57N 51°54' E 004°22'0 0.0
2018-Jun-20 19:30N 51°54' E 004°22'0 0.0
2018-Jun-20 19:00N 51°54' E 004°22'0 0.0
2018-Jun-20 18:30N 51°54' E 004°22'0 0.0
2018-Jun-20 18:00N 51°54' E 004°22'0 0.0
2018-Jun-20 17:30N 51°54' E 004°22'0 0.0
2018-Jun-20 17:00N 51°54' E 004°22'0 0.0
2018-Jun-20 16:30N 51°54' E 004°22'0 0.0
2018-Jun-20 16:00N 51°54' E 004°22'0 0.0
2018-Jun-20 15:30N 51°54' E 004°22'0 0.0
2018-Jun-20 14:54N 51°54' E 004°22'0 0.0
2018-Jun-20 14:30N 51°54' E 004°22'0 0.0
2018-Jun-20 13:57N 51°54' E 004°22'0 0.0
2018-Jun-20 13:21N 51°54' E 004°22'0 0.0
2018-Jun-20 12:57N 51°54' E 004°22'0 0.0
2018-Jun-20 12:30N 51°54' E 004°22'0 0.0
2018-Jun-20 11:57N 51°54' E 004°22'0 0.0
2018-Jun-20 11:21N 51°54' E 004°22'0 0.0
2018-Jun-20 10:57N 51°54' E 004°22'0 0.0
2018-Jun-20 10:27N 51°54' E 004°22'0 0.0
2018-Jun-20 10:00N 51°54' E 004°22'0 0.0
2018-Jun-20 09:24N 51°54' E 004°22'0 0.0
2018-Jun-20 09:00N 51°54' E 004°22'0 0.0
2018-Jun-20 08:25N 51°54' E 004°22'0 0.3
2018-Jun-20 08:00N 51°54' E 004°22'4 8.2
2018-Jun-20 07:31N 51°55' E 004°15'713.4
2018-Jun-20 07:00N 51°59' E 004°06'612.9
2018-Jun-20 06:31N 52°00' E 003°56'5 9.8
2018-Jun-20 06:01N 51°58' E 003°50'2 3.4
2018-Jun-20 05:20N 51°55' E 003°49'0 0.0
2018-Jun-20 04:59N 51°55' E 003°49'0 0.0
2018-Jun-20 04:26N 51°55' E 003°49'0 0.1
2018-Jun-20 03:59N 51°55' E 003°49'0 0.0
2018-Jun-20 03:23N 51°55' E 003°49'0 0.0
2018-Jun-20 02:59N 51°55' E 003°49'0 0.0
2018-Jun-20 02:29N 51°55' E 003°49'0 0.2
2018-Jun-20 01:59N 51°55' E 003°49'0 0.0
2018-Jun-20 01:29N 51°55' E 003°49'0 0.0
2018-Jun-20 00:50N 51°55' E 003°49'0 0.1
2018-Jun-20 00:29N 51°55' E 003°49'0 0.1
2018-Jun-19 23:56N 51°55' E 003°49'0 0.0
2018-Jun-19 23:05N 51°55' E 003°49'0 0.0
2018-Jun-19 22:56N 51°55' E 003°49'0 0.0
2018-Jun-19 22:29N 51°55' E 003°49'0 0.0
2018-Jun-19 21:59N 51°55' E 003°49'0 0.0
2018-Jun-19 21:26N 51°55' E 003°49'0 0.0
2018-Jun-19 20:56N 51°55' E 003°49'0 0.0
2018-Jun-19 20:23N 51°55' E 003°49'0 0.0
2018-Jun-19 19:56N 51°55' E 003°49'0 0.0
2018-Jun-19 19:20N 51°55' E 003°49'0 0.0
2018-Jun-19 18:50N 51°55' E 003°49'0 0.1
2018-Jun-19 18:29N 51°55' E 003°49'0 0.0
2018-Jun-19 17:59N 51°55' E 003°49'0 0.0
2018-Jun-19 17:02N 51°55' E 003°49'0 0.0
2018-Jun-19 16:50N 51°55' E 003°49'0 0.0
2018-Jun-19 16:29N 51°55' E 003°49'0 0.2
2018-Jun-19 15:59N 51°55' E 003°49'0 0.0
2018-Jun-19 15:29N 51°55' E 003°49'0 0.0
2018-Jun-19 14:59N 51°55' E 003°49'0 0.1
2018-Jun-19 14:26N 51°55' E 003°49'0 0.0
2018-Jun-19 13:59N 51°55' E 003°49'0 0.0
2018-Jun-19 13:29N 51°55' E 003°49'0 0.1
2018-Jun-19 12:59N 51°55' E 003°49'0 0.1
2018-Jun-19 12:29N 51°55' E 003°49'0 0.0
2018-Jun-19 11:56N 51°55' E 003°49'0 0.0
2018-Jun-19 11:29N 51°55' E 003°49'0 0.1
2018-Jun-19 10:59N 51°55' E 003°49'0 0.1
2018-Jun-19 10:29N 51°55' E 003°49'0 0.0
2018-Jun-19 09:47N 51°55' E 003°49'0 0.0
2018-Jun-19 09:26N 51°55' E 003°49'0 0.0
2018-Jun-19 07:56N 51°55' E 003°49'0 0.0
2018-Jun-19 06:47N 51°55' E 003°49'0 0.0
2018-Jun-19 06:23N 51°55' E 003°49'0 0.0
2018-Jun-19 05:59N 51°55' E 003°49'0 0.0
2018-Jun-19 05:23N 51°55' E 003°49'0 0.0
2018-Jun-19 04:50N 51°55' E 003°49'0 0.0
2018-Jun-19 04:23N 51°55' E 003°49'0 0.0
2018-Jun-19 03:35N 51°55' E 003°49'0 0.1
2018-Jun-19 03:26N 51°55' E 003°49'0 0.0
2018-Jun-19 02:59N 51°55' E 003°49'0 0.0
2018-Jun-19 02:23N 51°55' E 003°49'0 0.2
2018-Jun-19 01:59N 51°55' E 003°49'0 0.1
2018-Jun-19 01:29N 51°55' E 003°49'0 0.1
2018-Jun-19 00:59N 51°55' E 003°49'0 0.1
2018-Jun-19 00:26N 51°55' E 003°49'0 0.0
2018-Jun-18 23:59N 51°55' E 003°49'0 0.1
2018-Jun-18 23:29N 51°55' E 003°49'0 0.0
2018-Jun-18 22:44N 51°55' E 003°49'0 0.1
2018-Jun-18 22:26N 51°55' E 003°49'0 0.0
2018-Jun-18 21:59N 51°55' E 003°49'0 0.0
2018-Jun-18 21:14N 51°55' E 003°49'0 0.0
2018-Jun-18 20:50N 51°55' E 003°49'0 0.0
2018-Jun-18 20:26N 51°55' E 003°49'0 0.0
2018-Jun-18 19:41N 51°55' E 003°49'0 0.0
2018-Jun-18 19:29N 51°55' E 003°49'0 0.0
2018-Jun-18 18:35N 51°55' E 003°49'0 0.0
2018-Jun-18 18:23N 51°55' E 003°49'0 0.0
2018-Jun-18 17:56N 51°55' E 003°49'3 8.1
2018-Jun-18 17:30N 51°55' E 003°44'510.1
2018-Jun-18 17:01N 51°57' E 003°36'713.9
2018-Jun-18 16:30N 51°55' E 003°25'713.6
2018-Jun-18 16:00N 51°53' E 003°15'913.1
2018-Jun-18 15:18N 51°50' E 003°01'1112.5
2018-Jun-18 14:26N 51°48' E 002°44'812.1
2018-Jun-18 13:49N 51°50' E 002°32'411.6
2018-Jun-18 13:30N 51°51' E 002°27'4 8.6
2018-Jun-18 13:00N 51°55' E 002°30'9 3.1
2018-Jun-18 09:58N 51°46' E 002°33'2 3.2
2018-Jun-18 09:21N 51°44' E 002°32'1 4.0
2018-Jun-18 09:01N 51°43' E 002°31'3 6.1
2018-Jun-18 08:30N 51°40' E 002°28'4 7.0
2018-Jun-18 07:59N 51°37' E 002°26'4 8.5
2018-Jun-18 07:29N 51°34' E 002°22'4 9.2
2018-Jun-18 07:00N 51°30' E 002°17'5 9.5
2018-Jun-18 06:29N 51°27' E 002°12'510.9
2018-Jun-18 06:00N 51°24' E 002°05'612.6
2018-Jun-18 05:30N 51°19' E 001°58'713.9
2018-Jun-18 05:00N 51°14' E 001°50'714.8
2018-Jun-18 04:30N 51°08' E 001°43'815.2
2018-Jun-18 04:00N 51°02' E 001°37'815.6
2018-Jun-18 03:30N 50°55' E 001°31'816.0
2018-Jun-18 03:00N 50°47' E 001°28'714.6
2018-Jun-18 02:30N 50°41' E 001°21'6014.0
2018-Jun-17 22:13N 49°56' E 000°19'313.8
2018-Jun-17 22:00N 49°54' E 000°16'713.3
2018-Jun-17 21:30N 49°49' E 000°10'612.5
2018-Jun-17 21:00N 49°44' E 000°04'611.7
2018-Jun-17 20:30N 49°39' W 000°02'611.3
2018-Jun-17 20:00N 49°34' W 000°01'510.7
2018-Jun-17 19:30N 49°29' E 000°04'4 8.5
2018-Jun-17 19:00N 49°29' E 000°10'0 0.0
2018-Jun-17 18:30N 49°29' E 000°10'1 2.5
2018-Jun-17 18:00N 49°30' E 000°11'2 4.4
2018-Jun-17 17:30N 49°29' E 000°15'0 0.0
2018-Jun-17 16:59N 49°29' E 000°15'0 0.0
2018-Jun-17 16:29N 49°29' E 000°15'0 0.0
2018-Jun-17 15:59N 49°29' E 000°15'0 0.0
2018-Jun-17 15:29N 49°29' E 000°15'0 0.0
2018-Jun-17 14:59N 49°29' E 000°15'0 0.0
2018-Jun-17 14:29N 49°29' E 000°15'0 0.0
2018-Jun-17 13:59N 49°29' E 000°15'0 0.0
2018-Jun-17 13:29N 49°29' E 000°15'0 0.0
2018-Jun-17 12:59N 49°29' E 000°15'0 0.0
2018-Jun-17 12:29N 49°29' E 000°15'0 0.0
2018-Jun-17 11:59N 49°29' E 000°15'0 0.0
2018-Jun-17 11:29N 49°29' E 000°15'0 0.0
2018-Jun-17 10:59N 49°29' E 000°15'0 0.0
2018-Jun-17 10:29N 49°29' E 000°15'0 0.0
2018-Jun-17 09:59N 49°29' E 000°15'0 0.0
2018-Jun-17 09:29N 49°29' E 000°15'0 0.0
2018-Jun-17 08:59N 49°29' E 000°15'0 0.0
2018-Jun-17 08:29N 49°29' E 000°15'0 0.0
2018-Jun-17 07:59N 49°29' E 000°15'0 0.0
2018-Jun-17 07:29N 49°29' E 000°15'0 0.0
2018-Jun-17 06:59N 49°29' E 000°15'0 0.0
2018-Jun-17 06:29N 49°29' E 000°15'0 0.2
2018-Jun-17 06:00N 49°30' E 000°15'2 3.4
2018-Jun-17 05:30N 49°30' E 000°12'2 3.5
2018-Jun-17 05:00N 49°29' E 000°10'0 0.5
2018-Jun-17 04:30N 49°28' E 000°10'3 6.7
2018-Jun-17 04:00N 49°29' E 000°05'611.5
2018-Jun-17 03:30N 49°30' W 000°04'5 9.5
2018-Jun-17 03:00N 49°31' W 000°11'0 0.6
2018-Jun-17 02:30N 49°31' W 000°11'0 0.5
2018-Jun-17 02:00N 49°31' W 000°11'0 0.4
2018-Jun-17 01:30N 49°31' W 000°11'0 0.1
2018-Jun-17 01:00N 49°31' W 000°11'1 1.9
2018-Jun-17 00:30N 49°30' W 000°12'1 1.6
2018-Jun-17 00:00N 49°31' W 000°12'1 2.5
2018-Jun-16 23:30N 49°32' W 000°13'1 2.3
2018-Jun-16 23:00N 49°31' W 000°13'1 2.6
2018-Jun-16 22:30N 49°31' W 000°11'2 3.0
2018-Jun-16 22:00N 49°32' W 000°09'3 5.5
2018-Jun-16 21:30N 49°34' W 000°06'4 7.4
2018-Jun-16 21:00N 49°37' W 000°03'4 8.5
2018-Jun-16 20:30N 49°41' W 000°01'510.3
2018-Jun-16 20:00N 49°45' E 000°04'611.6
2018-Jun-16 19:30N 49°50' E 000°09'612.6
2018-Jun-16 19:00N 49°55' E 000°14'4111.7
2018-Jun-16 15:31N 50°33' E 000°36'011.0
2018-Jun-16 15:30N 50°34' E 000°36'611.9
2018-Jun-16 15:00N 50°37' E 000°44'611.4
2018-Jun-16 14:30N 50°40' E 000°51'510.7
2018-Jun-16 14:00N 50°44' E 000°58'610.0
2018-Jun-16 13:26N 50°47' E 001°06'4 9.7
2018-Jun-16 12:59N 50°50' E 001°11'4 9.3
2018-Jun-16 12:30N 50°53' E 001°16'5 9.4
2018-Jun-16 12:00N 50°56' E 001°20'510.4
2018-Jun-16 11:31N 51°00' E 001°26'612.0
2018-Jun-16 11:00N 51°05' E 001°32'713.5
2018-Jun-16 10:30N 51°09' E 001°40'714.3
2018-Jun-16 10:00N 51°15' E 001°47'714.2
2018-Jun-16 09:30N 51°21' E 001°53'611.7
2018-Jun-16 09:00N 51°25' E 002°00'612.2
2018-Jun-16 08:30N 51°23' E 002°09'612.2
2018-Jun-16 08:00N 51°20' E 002°18'713.1
2018-Jun-16 07:30N 51°22' E 002°29'612.6
2018-Jun-16 07:00N 51°23' E 002°39'510.2
2018-Jun-16 06:30N 51°22' E 002°47'712.3
2018-Jun-16 05:58N 51°23' E 002°57'612.4
2018-Jun-16 05:30N 51°24' E 003°06'612.6
2018-Jun-16 05:00N 51°25' E 003°16'612.5
2018-Jun-16 04:30N 51°25' E 003°26'611.9
2018-Jun-16 04:00N 51°25' E 003°36'510.6
2018-Jun-16 03:30N 51°23' E 003°43'5 9.4
2018-Jun-16 03:00N 51°20' E 003°49'0 0.9
2018-Jun-16 02:30N 51°19' E 003°49'3 5.6
2018-Jun-16 02:01N 51°17' E 003°50'4 7.9
2018-Jun-16 01:30N 51°13' E 003°48'4 7.6
2018-Jun-16 01:00N 51°09' E 003°47'4 7.7
2018-Jun-16 00:30N 51°06' E 003°44'1 1.8
2018-Jun-16 00:00N 51°05' E 003°44'0 0.0
2018-Jun-15 23:29N 51°05' E 003°44'0 0.0
2018-Jun-15 22:56N 51°05' E 003°44'0 0.0
2018-Jun-15 22:29N 51°05' E 003°44'0 0.0
2018-Jun-15 21:59N 51°05' E 003°44'0 0.0
2018-Jun-15 21:29N 51°05' E 003°44'0 0.0
2018-Jun-15 20:59N 51°05' E 003°44'0 0.0
2018-Jun-15 20:20N 51°05' E 003°44'0 0.0
2018-Jun-15 19:59N 51°05' E 003°44'0 0.0
2018-Jun-15 19:29N 51°05' E 003°44'0 0.0
2018-Jun-15 18:59N 51°05' E 003°44'0 0.0
2018-Jun-15 18:29N 51°05' E 003°44'0 0.0
2018-Jun-15 17:59N 51°05' E 003°44'0 0.0
2018-Jun-15 17:30N 51°05' E 003°44'0 0.0
2018-Jun-15 16:59N 51°05' E 003°44'0 0.0
2018-Jun-15 16:30N 51°05' E 003°44'0 0.0
2018-Jun-15 15:56N 51°05' E 003°44'0 0.0
2018-Jun-15 15:23N 51°05' E 003°44'0 0.0
2018-Jun-15 14:53N 51°05' E 003°44'0 0.0
2018-Jun-15 14:23N 51°05' E 003°44'0 0.0
2018-Jun-15 13:50N 51°05' E 003°44'0 0.0
2018-Jun-15 13:29N 51°05' E 003°44'0 0.0
2018-Jun-15 12:59N 51°05' E 003°44'0 0.0
2018-Jun-15 12:29N 51°05' E 003°44'0 0.0
2018-Jun-15 11:54N 51°05' E 003°44'0 0.0
2018-Jun-15 11:30N 51°05' E 003°44'0 0.0
2018-Jun-15 11:00N 51°05' E 003°44'0 0.0
2018-Jun-15 10:30N 51°05' E 003°44'0 0.0
2018-Jun-15 10:00N 51°05' E 003°44'0 0.0
2018-Jun-15 09:30N 51°05' E 003°44'0 0.0
2018-Jun-15 09:00N 51°05' E 003°44'0 0.0
2018-Jun-15 08:30N 51°05' E 003°44'0 0.0
2018-Jun-15 08:00N 51°05' E 003°44'0 0.0
2018-Jun-15 07:24N 51°05' E 003°44'0 0.0
2018-Jun-15 07:00N 51°05' E 003°44'0 0.0
2018-Jun-15 06:24N 51°05' E 003°44'0 0.0
2018-Jun-15 06:00N 51°05' E 003°44'0 0.0
2018-Jun-15 05:30N 51°05' E 003°44'0 0.0
2018-Jun-15 05:00N 51°05' E 003°44'0 0.0
2018-Jun-15 04:30N 51°05' E 003°44'0 0.0
2018-Jun-15 04:00N 51°05' E 003°44'0 0.0
2018-Jun-15 03:24N 51°05' E 003°44'0 0.0
2018-Jun-15 03:00N 51°05' E 003°44'0 0.0
2018-Jun-15 02:30N 51°05' E 003°44'0 0.0
2018-Jun-15 02:00N 51°05' E 003°44'0 0.0
2018-Jun-15 01:30N 51°05' E 003°44'0 0.0
2018-Jun-15 00:58N 51°05' E 003°44'0 0.0
2018-Jun-15 00:19N 51°05' E 003°44'0 0.0
2018-Jun-14 23:55N 51°05' E 003°44'0 0.0
2018-Jun-14 23:30N 51°05' E 003°44'3 5.2
2018-Jun-14 23:00N 51°07' E 003°46'5 9.1
2018-Jun-14 22:31N 51°12' E 003°48'4 8.7
2018-Jun-14 22:01N 51°16' E 003°50'4 7.3
2018-Jun-14 21:30N 51°19' E 003°49'0 0.8
2018-Jun-14 21:00N 51°20' E 003°49'0 0.0
2018-Jun-14 20:30N 51°20' E 003°49'1 1.2
2018-Jun-14 20:00N 51°20' E 003°49'1 2.4
2018-Jun-14 19:30N 51°21' E 003°47'4 8.8
2018-Jun-14 19:00N 51°24' E 003°42'5 9.6
2018-Jun-14 18:30N 51°26' E 003°35'4 8.8
2018-Jun-14 18:00N 51°29' E 003°30'510.2
2018-Jun-14 17:30N 51°33' E 003°25'510.5
2018-Jun-14 17:00N 51°38' E 003°21'610.8
2018-Jun-14 16:29N 51°42' E 003°16'510.0
2018-Jun-14 16:00N 51°46' E 003°11'49 9.6
2018-Jun-14 10:52N 52°29' E 002°31'811.8
2018-Jun-14 10:10N 52°36' E 002°24'211.0
2018-Jun-14 09:59N 52°38' E 002°23'712.1
2018-Jun-14 09:22N 52°44' E 002°15'512.5
2018-Jun-14 08:57N 52°48' E 002°10'612.9
2018-Jun-14 08:30N 52°51' E 002°02'713.4
2018-Jun-14 08:00N 52°56' E 001°54'714.0
2018-Jun-14 07:30N 52°60' E 001°44'713.5
2018-Jun-14 07:00N 53°05' E 001°36'713.5
2018-Jun-14 06:30N 53°09' E 001°27'713.5
2018-Jun-14 06:00N 53°13' E 001°18'713.2
2018-Jun-14 05:30N 53°17' E 001°09'4311.2
2018-Jun-14 01:41N 53°35' E 000°04'2 9.6
2018-Jun-14 01:28N 53°35' E 000°01'510.7
2018-Jun-14 01:00N 53°37' W 000°07'3 0.1
2018-Jun-13 00:15N 53°38' W 000°11'0 0.3
2018-Jun-13 00:00N 53°38' W 000°12'2 3.7
2018-Jun-12 23:30N 53°38' W 000°08'510.3
2018-Jun-12 23:00N 53°35' W 000°01'4 6.3
2018-Jun-12 22:24N 53°33' E 000°04'0 0.1
2018-Jun-12 21:49N 53°33' E 000°04'0 0.0
2018-Jun-12 21:22N 53°33' E 000°04'0 0.0
2018-Jun-12 20:58N 53°33' E 000°04'0 0.0
2018-Jun-12 19:51N 53°33' E 000°04'0 0.0
2018-Jun-12 19:15N 53°33' E 000°04'0 0.1
2018-Jun-12 17:57N 53°33' E 000°04'5210.5
2018-Jun-12 12:59N 53°10' E 001°22'713.5
2018-Jun-12 12:30N 53°06' E 001°31'713.4
2018-Jun-12 12:00N 53°02' E 001°40'713.4
2018-Jun-12 11:30N 52°59' E 001°50'612.9
2018-Jun-12 11:00N 52°56' E 001°59'611.9
2018-Jun-12 10:30N 52°51' E 002°06'611.6
2018-Jun-12 10:00N 52°46' E 002°10'4210.6
2018-Jun-12 06:00N 52°20' E 003°05'1311.3
2018-Jun-12 04:50N 52°13' E 003°23'411.4
2018-Jun-12 04:30N 52°11' E 003°28'611.6
2018-Jun-12 04:00N 52°07' E 003°36'611.5
2018-Jun-12 03:30N 52°05' E 003°44'611.4
2018-Jun-12 03:00N 52°03' E 003°53'510.1
2018-Jun-12 02:30N 52°01' E 004°00'612.0
2018-Jun-12 02:00N 51°58' E 004°09'510.9
2018-Jun-12 01:30N 51°54' E 004°16'2 3.3
2018-Jun-12 00:48N 51°53' E 004°18'0 0.0
2018-Jun-12 00:24N 51°53' E 004°18'0 0.0
2018-Jun-12 00:00N 51°53' E 004°18'0 0.0
2018-Jun-11 23:30N 51°53' E 004°18'0 0.0
2018-Jun-11 23:00N 51°53' E 004°18'0 0.0
2018-Jun-11 22:30N 51°53' E 004°18'0 0.0
2018-Jun-11 22:00N 51°53' E 004°18'0 0.0
2018-Jun-11 21:24N 51°53' E 004°18'0 0.0
2018-Jun-11 21:00N 51°53' E 004°18'0 0.0
2018-Jun-11 20:30N 51°53' E 004°18'0 0.0
2018-Jun-11 20:00N 51°53' E 004°18'0 0.0
2018-Jun-11 19:30N 51°53' E 004°18'0 0.0
2018-Jun-11 19:00N 51°53' E 004°18'0 0.0
2018-Jun-11 18:30N 51°53' E 004°18'0 0.0
2018-Jun-11 18:00N 51°53' E 004°18'0 0.0
2018-Jun-11 17:30N 51°53' E 004°18'  

Dump ship's entire track history